Map

Track Data

SID SEASON NUMBER BASIN SUBBASIN NAME ISO_TIME NATURE LAT LON WMO_WIND WMO_PRES WMO_AGENCY TRACK_TYPE DIST2LAND LANDFALL IFLAG USA_AGENCY USA_ATCF_ID USA_LAT USA_LON USA_RECORD USA_STATUS USA_WIND USA_PRES USA_SSHS USA_R34_NE USA_R34_SE USA_R34_SW USA_R34_NW USA_R50_NE USA_R50_SE USA_R50_SW USA_R50_NW USA_R64_NE USA_R64_SE USA_R64_SW USA_R64_NW USA_POCI USA_ROCI USA_RMW USA_EYE TOKYO_LAT TOKYO_LON TOKYO_GRADE TOKYO_WIND TOKYO_PRES TOKYO_R50_DIR TOKYO_R50_LONG TOKYO_R50_SHORT TOKYO_R30_DIR TOKYO_R30_LONG TOKYO_R30_SHORT TOKYO_LAND CMA_LAT CMA_LON CMA_CAT CMA_WIND CMA_PRES HKO_LAT HKO_LON HKO_CAT HKO_WIND HKO_PRES NEWDELHI_LAT NEWDELHI_LON NEWDELHI_GRADE NEWDELHI_WIND NEWDELHI_PRES NEWDELHI_CI NEWDELHI_DP NEWDELHI_POCI REUNION_LAT REUNION_LON REUNION_TYPE REUNION_WIND REUNION_PRES REUNION_TNUM REUNION_CI REUNION_RMW REUNION_R34_NE REUNION_R34_SE REUNION_R34_SW REUNION_R34_NW REUNION_R50_NE REUNION_R50_SE REUNION_R50_SW REUNION_R50_NW REUNION_R64_NE REUNION_R64_SE REUNION_R64_SW REUNION_R64_NW BOM_LAT BOM_LON BOM_TYPE BOM_WIND BOM_PRES BOM_TNUM BOM_CI BOM_RMW BOM_R34_NE BOM_R34_SE BOM_R34_SW BOM_R34_NW BOM_R50_NE BOM_R50_SE BOM_R50_SW BOM_R50_NW BOM_R64_NE BOM_R64_SE BOM_R64_SW BOM_R64_NW BOM_ROCI BOM_POCI BOM_EYE BOM_POS_METHOD BOM_PRES_METHOD NADI_LAT NADI_LON NADI_CAT NADI_WIND NADI_PRES WELLINGTON_LAT WELLINGTON_LON WELLINGTON_WIND WELLINGTON_PRES DS824_LAT DS824_LON DS824_STAGE DS824_WIND DS824_PRES TD9636_LAT TD9636_LON TD9636_STAGE TD9636_WIND TD9636_PRES TD9635_LAT TD9635_LON TD9635_WIND TD9635_PRES TD9635_ROCI NEUMANN_LAT NEUMANN_LON NEUMANN_CLASS NEUMANN_WIND NEUMANN_PRES MLC_LAT MLC_LON MLC_CLASS MLC_WIND MLC_PRES USA_GUST BOM_GUST BOM_GUST_PER REUNION_GUST REUNION_GUST_PER USA_SEAHGT USA_SEARAD_NE USA_SEARAD_SE USA_SEARAD_SW USA_SEARAD_NW STORM_SPEED STORM_DIR
1966220N14237 1966 52 EP MM CONNIE 1966-08-08 00:00:00 TS 14.0000 -122.900 45 hurdat_epa main 1646 1646 O________OO___ hurdat_epa EP031966 14.0000 -122.900 TS 45 0 14.0000 -122.900 TC 45 14.0000 -122.900 2 7 270
1966220N14237 1966 52 EP MM CONNIE 1966-08-08 03:00:00 TS 14.0002 -123.250 main 1675 1675 P________PP___ EP031966 14.0001 -123.248 TS 45 0 14.0001 -123.248 TC 45 14.0005 -123.261 2 7 270
1966220N14237 1966 52 EP MM CONNIE 1966-08-08 06:00:00 TS 14.0001 -123.604 45 hurdat_epa main 1697 1697 O________OP___ hurdat_epa EP031966 14.0000 -123.600 TS 45 0 14.0000 -123.600 TC 45 14.0006 -123.618 2 7 270
1966220N14237 1966 52 EP MM CONNIE 1966-08-08 09:00:00 TS 14.0001 -123.959 main 1727 1727 P________PP___ EP031966 14.0000 -123.958 TS 45 0 14.0000 -123.958 TC 45 14.0003 -123.965 2 7 270
1966220N14237 1966 52 EP MM CONNIE 1966-08-08 12:00:00 TS 14.0000 -124.300 45 hurdat_epa main 1750 1750 O________OO___ hurdat_epa EP031966 14.0000 -124.300 TS 45 0 14.0000 -124.300 TC 45 14.0000 -124.300 2 6 270
1966220N14237 1966 52 EP MM CONNIE 1966-08-08 15:00:00 TS 13.9999 -124.604 main 1772 1772 P________PP___ EP031966 13.9999 -124.600 TS 45 0 13.9999 -124.600 TC 45 13.9997 -124.620 2 6 270
1966220N14237 1966 52 EP MM CONNIE 1966-08-08 18:00:00 TS 13.9999 -124.907 45 hurdat_epa main 1795 1795 O________OP___ hurdat_epa EP031966 14.0000 -124.900 TS 45 0 14.0000 -124.900 TC 45 13.9996 -124.935 2 6 270
1966220N14237 1966 52 EP MM CONNIE 1966-08-08 21:00:00 TS 13.9999 -125.240 main 1819 1819 P________PP___ EP031966 13.9999 -125.235 TS 45 0 13.9999 -125.235 TC 45 13.9997 -125.258 2 7 270
1966220N14237 1966 52 EP MM CONNIE 1966-08-09 00:00:00 TS 14.0000 -125.600 45 hurdat_epa main 1850 1850 O________OO___ hurdat_epa EP031966 14.0000 -125.600 TS 45 0 14.0000 -125.600 TC 45 14.0000 -125.600 2 7 270
1966220N14237 1966 52 EP MM CONNIE 1966-08-09 03:00:00 TS 14.0000 -125.989 main 1882 1882 P________PP___ EP031966 14.0000 -125.993 TS 45 0 14.0000 -125.993 TC 45 13.9999 -125.974 2 8 270
1966220N14237 1966 52 EP MM CONNIE 1966-08-09 06:00:00 TS 14.0000 -126.394 45 hurdat_epa main 1914 1914 O________OP___ hurdat_epa EP031966 14.0000 -126.400 TS 45 0 14.0000 -126.400 TC 45 13.9999 -126.370 2 8 270
1966220N14237 1966 52 EP MM CONNIE 1966-08-09 09:00:00 TS 13.9999 -126.796 main 1947 1947 P________PP___ EP031966 13.9999 -126.800 TS 45 0 13.9999 -126.800 TC 45 13.9999 -126.781 2 8 270
1966220N14237 1966 52 EP MM CONNIE 1966-08-09 12:00:00 TS 14.0000 -127.200 45 hurdat_epa main 1980 1980 O________OO___ hurdat_epa EP031966 14.0000 -127.200 TS 45 0 14.0000 -127.200 TC 45 14.0000 -127.200 2 8 270
1966220N14237 1966 52 EP MM CONNIE 1966-08-09 15:00:00 TS 13.9949 -127.588 main 2011 2011 P________PP___ EP031966 13.9999 -127.593 TS 45 0 13.9999 -127.593 TC 45 13.9747 -127.570 2 8 269
1966220N14237 1966 52 EP MM CONNIE 1966-08-09 18:00:00 TS 13.9907 -127.991 45 hurdat_epa main 2038 2038 O________OP___ hurdat_epa EP031966 14.0000 -128.000 TS 45 0 14.0000 -128.000 TC 45 13.9536 -127.953 2 8 269
1966220N14237 1966 52 EP MM CONNIE 1966-08-09 21:00:00 TS 13.9789 -128.395 main 2066 2066 P________PP___ EP031966 13.9846 -128.398 TS 45 0 13.9846 -128.398 TC 45 13.9557 -128.385 2 9 271
1966220N14237 1966 52 EP MM CONNIE 1966-08-10 00:00:00 TS 14.0000 -128.900 45 hurdat_epa main 2101 2101 O________OO___ hurdat_epa EP031966 14.0000 -128.900 TS 45 0 14.0000 -128.900 TC 45 14.0000 -128.900 2 12 275
1966220N14237 1966 52 EP MM CONNIE 1966-08-10 03:00:00 TS 14.0744 -129.598 main 2143 2143 P________PP___ EP031966 14.0702 -129.613 TS 45 0 14.0702 -129.613 TC 45 14.0911 -129.539 2 14 278
1966220N14237 1966 52 EP MM CONNIE 1966-08-10 06:00:00 TS 14.2051 -130.372 45 hurdat_epa main 2194 2194 O________OP___ hurdat_epa EP031966 14.2000 -130.400 TS 45 0 14.2000 -130.400 TC 45 14.2255 -130.260 2 15 282
1966220N14237 1966 52 EP MM CONNIE 1966-08-10 09:00:00 TS 14.3812 -131.085 main 2231 2231 P________PP___ EP031966 14.3772 -131.100 TS 45 0 14.3772 -131.100 TC 45 14.3971 -131.027 2 14 286
1966220N14237 1966 52 EP MM CONNIE 1966-08-10 12:00:00 TS 14.6000 -131.800 45 hurdat_epa main 2270 2270 O________OO___ hurdat_epa EP031966 14.6000 -131.800 TS 45 0 14.6000 -131.800 TC 45 14.6000 -131.800 2 15 288
1966220N14237 1966 52 EP MM CONNIE 1966-08-10 15:00:00 TS 14.8398 -132.552 main 2319 2312 P________PP___ EP031966 14.8424 -132.550 TS 45 0 14.8424 -132.550 TC 45 14.8294 -132.561 2 15 289
1966220N14237 1966 52 EP MM CONNIE 1966-08-10 18:00:00 TS 15.0970 -133.303 45 hurdat_epa main 2333 2255 O________OP___ hurdat_epa EP031966 15.1000 -133.300 TS 45 0 15.1000 -133.300 TC 45 15.0852 -133.317 2 15 290
1966220N14237 1966 52 EP MM CONNIE 1966-08-10 21:00:00 TS 15.3556 -134.038 main 2252 2174 P________PP___ EP031966 15.3575 -134.038 TS 45 0 15.3575 -134.038 TC 45 15.3483 -134.039 2 14 290
1966220N14237 1966 52 EP MM CONNIE 1966-08-11 00:00:00 TS 15.6000 -134.700 45 hurdat_epa main 2174 2116 O________OO___ hurdat_epa EP031966 15.6000 -134.700 TS 45 0 15.6000 -134.700 TC 45 15.6000 -134.700 2 12 291
1966220N14237 1966 52 EP MM CONNIE 1966-08-11 03:00:00 TS 15.8100 -135.239 main 2116 2059 P________PP___ EP031966 15.8071 -135.230 TS 45 0 15.8071 -135.230 TC 45 15.8214 -135.273 2 11 293
1966220N14237 1966 52 EP MM CONNIE 1966-08-11 06:00:00 TS 16.0057 -135.717 45 hurdat_epa main 2059 2002 O________OP___ hurdat_epa EP031966 16.0000 -135.700 TS 45 0 16.0000 -135.700 TC 45 16.0286 -135.783 2 10 293
1966220N14237 1966 52 EP MM CONNIE 1966-08-11 09:00:00 TS 16.2103 -136.216 main 2002 1945 P________PP___ EP031966 16.2074 -136.208 TS 45 0 16.2074 -136.208 TC 45 16.2216 -136.251 2 10 293
1966220N14237 1966 52 EP MM CONNIE 1966-08-11 12:00:00 TS 16.4000 -136.700 45 hurdat_epa main 1945 1898 O________OO___ hurdat_epa EP031966 16.4000 -136.700 TS 45 0 16.4000 -136.700 TC 45 16.4000 -136.700 2 10 291
1966220N14237 1966 52 EP MM CONNIE 1966-08-11 15:00:00 TS 16.5586 -137.155 main 1888 1844 P________PP___ EP031966 16.5574 -137.158 TS 45 0 16.5574 -137.158 TC 45 16.5636 -137.145 2 9 289
1966220N14237 1966 52 EP MM CONNIE 1966-08-11 18:00:00 TS 16.7028 -137.596 45 hurdat_epa main 1844 1800 O________OP___ hurdat_epa EP031966 16.7000 -137.600 TS 45 0 16.7000 -137.600 TC 45 16.7139 -137.578 2 9 289
1966220N14237 1966 52 EP MM CONNIE 1966-08-11 21:00:00 TS 16.8513 -138.033 main 1797 1743 P________PP___ EP031966 16.8498 -138.035 TS 45 0 16.8498 -138.035 TC 45 16.8573 -138.023 2 9 289
1966220N14237 1966 52 EP MM CONNIE 1966-08-12 00:00:00 TS 17.0000 -138.500 45 hurdat_epa main 1743 1689 O________OO___ hurdat_epa EP031966 17.0000 -138.500 TS 45 0 17.0000 -138.500 TC 45 17.0000 -138.500 2 10 288
1966220N14237 1966 52 EP MM CONNIE 1966-08-12 03:00:00 TS 17.1532 -139.034 main 1686 1622 P________PP___ EP031966 17.1499 -139.028 TS 45 0 17.1499 -139.028 TC 45 17.1666 -139.059 2 11 286
1966220N14237 1966 52 EP MM CONNIE 1966-08-12 06:00:00 TS 17.3061 -139.610 45 hurdat_epa main 1622 1555 O________OP___ hurdat_epa EP031966 17.3000 -139.600 TS 45 0 17.3000 -139.600 TC 45 17.3305 -139.650 2 12 286
1966220N14237 1966 52 EP CP CONNIE 1966-08-12 09:00:00 TS 17.4679 -140.220 main 1555 1501 P________PP___ EP031966 17.4651 -140.215 TS 45 0 17.4651 -140.215 TC 45 17.4791 -140.240 2 11 285
1966220N14237 1966 52 EP CP CONNIE 1966-08-12 12:00:00 TS 17.6000 -140.771 45 hurdat_epa main 1490 1447 O________OO___ hurdat_epa EP031966 17.6000 -140.800 TS 45 0 17.6000 -140.800 TC 45 17.6000 -140.800 2 10 282
1966220N14237 1966 52 EP CP CONNIE 1966-08-12 15:00:00 TS 17.6671 -141.217 main 1447 1405 P________PP___ EP031966 17.6647 -141.273 TS 45 0 17.6647 -141.273 TC 45 17.6863 -141.303 2 8 278
1966220N14237 1966 52 EP CP CONNIE 1966-08-12 18:00:00 TS 17.7077 -141.620 45 hurdat_epa main 1405 1361 O________OP___ hurdat_epa EP031966 17.7000 -141.700 TS 45 0 17.7000 -141.700 TC 45 17.7444 -141.768 2 8 277
1966220N14237 1966 52 EP CP CONNIE 1966-08-12 21:00:00 TS 17.7613 -142.044 main 1361 1319 P________PP___ EP031966 17.7575 -142.165 TS 45 0 17.7575 -142.165 TC 45 17.7803 -142.199 2 8 277
1966220N14237 1966 52 EP CP CONNIE 1966-08-13 00:00:00 TS 17.8000 -142.467 45 hurdat_epa main 1309 1278 O________OO___ hurdat_epa EP031966 17.8000 -142.600 TS 45 0 17.8000 -142.600 TC 45 17.8000 -142.600 2 8 274
1966220N14237 1966 52 EP CP CONNIE 1966-08-13 03:00:00 TS 17.8092 -142.837 main 1278 1236 P________PP___ EP031966 17.8073 -142.965 TS 45 0 17.8073 -142.965 TC 45 17.8181 -142.995 2 7 270
1966220N14237 1966 52 EP CP CONNIE 1966-08-13 06:00:00 TS 17.8037 -143.177 45 hurdat_epa main 1236 1205 O________OP___ hurdat_epa EP031966 17.8000 -143.300 TS 45 0 17.8000 -143.300 TC 45 17.8222 -143.360 2 7 269
1966220N14237 1966 52 EP CP CONNIE 1966-08-13 09:00:00 TS 17.8013 -143.526 main 1205 1174 P________PP___ EP031966 17.8000 -143.665 TS 60 0 17.8000 -143.665 TC 60 17.8151 -143.695 2 6 270
1966220N14237 1966 52 EP CP CONNIE 1966-08-13 12:00:00 TS 17.8000 -143.850 75 hurdat_epa main 1174 1143 O________OO___ hurdat_epa EP031966 17.8000 -144.000 HU 75 1 17.8000 -144.000 TC 75 17.8000 -144.000 2 6 271
1966220N14237 1966 52 EP CP CONNIE 1966-08-13 15:00:00 TS 17.8090 -144.130 main 1143 1111 P________PP___ EP031966 17.8074 -144.265 HU 75 1 17.8074 -144.265 TC 75 17.7819 -144.279 2 5 271
1966220N14237 1966 52 EP CP CONNIE 1966-08-13 18:00:00 TS 17.8095 -144.388 75 hurdat_epa main 1111 1091 O________OP___ hurdat_epa EP031966 17.8000 -144.500 HU 75 1 17.8000 -144.500 TC 75 17.7571 -144.530 2 5 268
1966220N14237 1966 52 EP CP CONNIE 1966-08-13 21:00:00 TS 17.7873 -144.654 main 1080 1060 P________PP___ EP031966 17.7575 -144.750 HU 75 1 17.7575 -144.750 TC 75 17.7288 -144.766 2 5 263
1966220N14237 1966 52 EP CP CONNIE 1966-08-14 00:00:00 TS 17.7500 -144.917 75 hurdat_epa main 1060 1031 O________OO___ hurdat_epa EP031966 17.7000 -145.000 HU 75 1 17.7000 -145.000 TC 75 17.7000 -145.000 3 5 260
1966220N14237 1966 52 EP CP CONNIE 1966-08-14 03:00:00 TS 17.7028 -145.174 main 1031 1010 P________PP___ EP031966 17.6425 -145.250 HU 75 1 17.6425 -145.250 TC 75 17.6748 -145.242 3 5 259
1966220N14237 1966 52 EP CP CONNIE 1966-08-14 06:00:00 TS 17.6583 -145.431 75 hurdat_epa main 1010 982 O________OP___ hurdat_epa EP031966 17.6000 -145.500 HU 75 1 17.6000 -145.500 TC 75 17.6498 -145.485 3 5 262
1966220N14237 1966 52 EP CP CONNIE 1966-08-14 09:00:00 TS 17.6324 -145.693 main 982 951 P________PP___ EP031966 17.5924 -145.742 HU 75 1 17.5924 -145.742 TC 75 17.6248 -145.736 3 5 265
1966220N14237 1966 52 EP CP CONNIE 1966-08-14 12:00:00 TS 17.6167 -145.967 75 hurdat_epa main 951 931 O________OO___ hurdat_epa EP031966 17.6000 -146.000 HU 75 1 17.6000 -146.000 TC 75 17.6000 -146.000 4 5 267
1966220N14237 1966 52 EP CP CONNIE 1966-08-14 15:00:00 TS 17.6086 -146.261 main 920 900 P________PP___ EP031966 17.6075 -146.292 HU 75 1 17.6075 -146.292 TC 75 17.5791 -146.294 4 6 268
1966220N14237 1966 52 EP CP CONNIE 1966-08-14 18:00:00 TS 17.5929 -146.567 75 hurdat_epa main 890 859 O________OP___ hurdat_epa EP031966 17.6000 -146.600 HU 75 1 17.6000 -146.600 TC 75 17.5576 -146.600 4 6 265
1966220N14237 1966 52 EP CP CONNIE 1966-08-14 21:00:00 TS 17.5520 -146.877 main 859 832 P________PP___ EP031966 17.5575 -146.908 HU 75 1 17.5575 -146.908 TC 75 17.5322 -146.906 4 6 261
1966220N14237 1966 52 EP CP CONNIE 1966-08-15 00:00:00 TS 17.5000 -147.183 75 hurdat_epa main 832 801 O________OO___ hurdat_epa EP031966 17.5000 -147.200 HU 75 1 17.5000 -147.200 TC 75 17.5000 -147.200 4 6 260
1966220N14237 1966 52 EP CP CONNIE 1966-08-15 03:00:00 TS 17.4497 -147.466 main 805 784 P________PP___ EP031966 17.4499 -147.457 HU 75 1 17.4499 -147.457 TC 75 17.4486 -147.440 4 5 259
1966220N14237 1966 52 EP CP CONNIE 1966-08-15 06:00:00 TS 17.3986 -147.745 75 hurdat_epa main 784 754 O________OP___ hurdat_epa EP031966 17.4000 -147.700 HU 75 1 17.4000 -147.700 TC 75 17.3919 -147.670 4 5 258
1966220N14237 1966 52 EP CP CONNIE 1966-08-15 09:00:00 TS 17.3418 -148.020 main 758 728 P________PP___ EP031966 17.3424 -147.928 HU 75 1 17.3424 -147.928 TC 75 17.3392 -147.915 4 6 260
1966220N14237 1966 52 EP CP CONNIE 1966-08-15 12:00:00 TS 17.3000 -148.333 75 hurdat_epa main 728 689 O________OO___ hurdat_epa EP031966 17.3000 -148.200 HU 75 1 17.3000 -148.200 TC 75 17.3000 -148.200 2 7 266
1966220N14237 1966 52 EP CP CONNIE 1966-08-15 15:00:00 TS 17.2932 -148.717 main 689 649 P________PP___ EP031966 17.2925 -148.577 HU 60 0 17.2925 -148.577 TC 60 17.2967 -148.492 2 8 270
1966220N14237 1966 52 EP CP CONNIE 1966-08-15 18:00:00 TS 17.3009 -149.139 45 hurdat_epa main 649 610 O________OP___ hurdat_epa EP031966 17.3000 -149.000 TS 45 0 17.3000 -149.000 TC 45 17.3057 -148.835 2 8 271
1966220N14237 1966 52 EP CP CONNIE 1966-08-15 21:00:00 TS 17.3078 -149.520 main 610 563 P________PP___ EP031966 17.3069 -149.340 TS 45 0 17.3069 -149.340 TC 45 17.3119 -149.260 2 8 270
1966220N14237 1966 52 EP CP CONNIE 1966-08-16 00:00:00 TS 17.3000 -150.000 45 hurdat_epa main 563 497 O________OO___ hurdat_epa EP031966 17.3000 -149.800 TS 45 0 17.3000 -149.800 TC 45 17.3000 -149.800 2 11 268
1966220N14237 1966 52 EP CP CONNIE 1966-08-16 03:00:00 TS 17.2632 -150.700 main 497 433 P________PP___ EP031966 17.2653 -150.540 TS 45 0 17.2653 -150.540 TC 45 17.2610 -150.542 2 14 266
1966220N14237 1966 52 EP CP CONNIE 1966-08-16 06:00:00 TS 17.1997 -151.498 45 hurdat_epa main 433 383 O________OP___ hurdat_epa EP031966 17.2000 -151.400 TS 45 0 17.2000 -151.400 TC 45 17.1982 -151.385 2 15 265
1966220N14237 1966 52 EP CP CONNIE 1966-08-16 09:00:00 TS 17.1190 -152.286 main 376 332 P________PP___ EP031966 17.1151 -152.245 TS 45 0 17.1151 -152.245 TC 45 17.1110 -152.236 2 14 263
1966220N14237 1966 52 EP CP CONNIE 1966-08-16 12:00:00 TS 17.0167 -153.000 45 hurdat_epa main 332 311 O________OO___ hurdat_epa EP031966 17.0000 -153.000 TS 45 0 17.0000 -153.000 TC 45 17.0000 -153.000 2 12 260
1966220N14237 1966 52 EP CP CONNIE 1966-08-16 15:00:00 TS 16.8984 -153.550 main 306 295 P________PP___ EP031966 16.8571 -153.560 TS 45 0 16.8571 -153.560 TC 45 16.8700 -153.563 2 10 256
1966220N14237 1966 52 EP CP CONNIE 1966-08-16 18:00:00 TS 16.7701 -154.005 45 hurdat_epa main 295 282 O________OP___ hurdat_epa EP031966 16.7000 -154.000 TS 45 0 16.7000 -154.000 TC 45 16.7206 -154.027 2 9 253
1966220N14237 1966 52 EP CP CONNIE 1966-08-16 21:00:00 TS 16.6434 -154.431 main 291 278 P________PP___ EP031966 16.5498 -154.415 TS 45 0 16.5498 -154.415 TC 45 16.5611 -154.428 2 8 252
1966220N14237 1966 52 EP CP CONNIE 1966-08-17 00:00:00 TS 16.5167 -154.833 45 hurdat_epa main 284 278 O________OO___ hurdat_epa EP031966 16.4000 -154.800 TS 45 0 16.4000 -154.800 TC 45 16.4000 -154.800 2 8 252
1966220N14237 1966 52 EP CP CONNIE 1966-08-17 03:00:00 TS 16.3919 -155.248 main 284 281 P________PP___ EP031966 16.2500 -155.207 TS 45 0 16.2500 -155.207 TC 45 16.2443 -155.171 2 8 252
1966220N14237 1966 52 EP CP CONNIE 1966-08-17 06:00:00 TS 16.2656 -155.658 45 hurdat_epa main 290 290 O________OP___ hurdat_epa EP031966 16.1000 -155.600 TS 45 0 16.1000 -155.600 TC 45 16.0936 -155.546 2 8 252
1966220N14237 1966 52 EP CP CONNIE 1966-08-17 09:00:00 TS 16.1345 -156.057 main 316 316 P________PP___ EP031966 15.9501 -155.960 TS 45 0 15.9501 -155.960 TC 45 15.9462 -155.922 2 8 251
1966220N14237 1966 52 EP CP CONNIE 1966-08-17 12:00:00 TS 16.0000 -156.450 45 hurdat_epa main 332 O________OO___ hurdat_epa EP031966 15.8000 -156.300 TS 45 0 15.8000 -156.300 TC 45 15.8000 -156.300 6 8 250

About IBTrACS Database

This database is a web-friendly format of International Best Track Archive for Climate Stewardship (IBTrACS), a global best track data archive curated by NOAA dating back to 1842.

Updated: 2021-11-26